Terminal Aerodrome Forecast
Issued by NWS Shreveport, LA

Home | Current Version | Previous Version | Text Only | Print | Product List | Glossary On
Versions: 1 2 3 4 5 6 7 8 9 10 11 12 13 14 15 16 17 18 19 20
000
FTUS44 KSHV 042200 AAA
TAFMLU
TAF AMD
KMLU 042234Z 0423/0518 20008KT P6SM VCTS SCT030CB OVC100
     FM050000 01015G28KT P6SM -RA OVC008
      TEMPO 0500/0502 01010KT SHRA OVC015
     FM051200 01020G30KT 5SM -FZRA BR OVC005=

USA.gov is the U.S. government's official web portal to all federal, state and local government web resources and services.